sensor_id;sensor_type;location;lat;lon;timestamp;temperature;humidity
40960;DHT22;27842;52.272;8.052;2022-09-09T00:01:05;17.80;93.70
40960;DHT22;27842;52.272;8.052;2022-09-09T00:03:49;17.80;93.70
40960;DHT22;27842;52.272;8.052;2022-09-09T00:09:10;17.70;93.70
40960;DHT22;27842;52.272;8.052;2022-09-09T00:11:41;17.70;93.80
40960;DHT22;27842;52.272;8.052;2022-09-09T00:17:36;17.70;93.70
40960;DHT22;27842;52.272;8.052;2022-09-09T00:20:13;17.70;93.70
40960;DHT22;27842;52.272;8.052;2022-09-09T00:22:48;17.70;93.80
40960;DHT22;27842;52.272;8.052;2022-09-09T00:25:23;17.70;93.80
40960;DHT22;27842;52.272;8.052;2022-09-09T00:27:51;17.70;93.80
40960;DHT22;27842;52.272;8.052;2022-09-09T00:30:32;17.60;93.80
40960;DHT22;27842;52.272;8.052;2022-09-09T00:33:10;17.60;93.80
40960;DHT22;27842;52.272;8.052;2022-09-09T00:35:52;17.60;93.90
40960;DHT22;27842;52.272;8.052;2022-09-09T00:38:41;17.60;93.80
40960;DHT22;27842;52.272;8.052;2022-09-09T00:44:11;17.70;93.80
40960;DHT22;27842;52.272;8.052;2022-09-09T00:46:59;17.70;93.90
40960;DHT22;27842;52.272;8.052;2022-09-09T00:57:26;17.70;93.90
40960;DHT22;27842;52.272;8.052;2022-09-09T01:00:24;17.60;93.90
40960;DHT22;27842;52.272;8.052;2022-09-09T01:11:23;17.60;94.00
40960;DHT22;27842;52.272;8.052;2022-09-09T01:13:58;17.60;94.00
40960;DHT22;27842;52.272;8.052;2022-09-09T01:16:26;17.60;94.00
40960;DHT22;27842;52.272;8.052;2022-09-09T01:18:54;17.60;94.00
40960;DHT22;27842;52.272;8.052;2022-09-09T01:26:46;17.60;94.00
40960;DHT22;27842;52.272;8.052;2022-09-09T01:29:15;17.60;94.00
40960;DHT22;27842;52.272;8.052;2022-09-09T01:34:18;17.60;94.00
40960;DHT22;27842;52.272;8.052;2022-09-09T01:36:49;17.60;94.10
40960;DHT22;27842;52.272;8.052;2022-09-09T01:39:17;17.60;94.10
40960;DHT22;27842;52.272;8.052;2022-09-09T01:41:43;17.50;94.10
40960;DHT22;27842;52.272;8.052;2022-09-09T01:44:08;17.50;94.10
40960;DHT22;27842;52.272;8.052;2022-09-09T01:46:35;17.50;94.10
40960;DHT22;27842;52.272;8.052;2022-09-09T01:49:02;17.50;94.10
40960;DHT22;27842;52.272;8.052;2022-09-09T01:51:29;17.50;94.10
40960;DHT22;27842;52.272;8.052;2022-09-09T01:53:55;17.50;94.10
40960;DHT22;27842;52.272;8.052;2022-09-09T02:01:45;17.50;94.10
40960;DHT22;27842;52.272;8.052;2022-09-09T02:06:48;17.50;94.10
40960;DHT22;27842;52.272;8.052;2022-09-09T02:09:19;17.50;94.10
40960;DHT22;27842;52.272;8.052;2022-09-09T02:11:51;17.50;94.20
40960;DHT22;27842;52.272;8.052;2022-09-09T02:14:31;17.50;94.20
40960;DHT22;27842;52.272;8.052;2022-09-09T02:17:05;17.50;94.30
40960;DHT22;27842;52.272;8.052;2022-09-09T02:19:37;17.50;94.30
40960;DHT22;27842;52.272;8.052;2022-09-09T02:22:04;17.50;94.30
40960;DHT22;27842;52.272;8.052;2022-09-09T02:24:35;17.40;94.30
40960;DHT22;27842;52.272;8.052;2022-09-09T02:27:04;17.40;94.40
40960;DHT22;27842;52.272;8.052;2022-09-09T02:29:36;17.40;94.50
40960;DHT22;27842;52.272;8.052;2022-09-09T02:32:06;17.30;94.80
40960;DHT22;27842;52.272;8.052;2022-09-09T02:34:37;17.40;94.50
40960;DHT22;27842;52.272;8.052;2022-09-09T02:37:08;17.40;94.50
40960;DHT22;27842;52.272;8.052;2022-09-09T02:39:35;17.40;94.50
40960;DHT22;27842;52.272;8.052;2022-09-09T02:42:00;17.40;94.40
40960;DHT22;27842;52.272;8.052;2022-09-09T02:44:26;17.40;94.50
40960;DHT22;27842;52.272;8.052;2022-09-09T02:52:26;17.40;94.70
40960;DHT22;27842;52.272;8.052;2022-09-09T02:54:57;17.40;94.40
40960;DHT22;27842;52.272;8.052;2022-09-09T02:57:28;17.30;94.40
40960;DHT22;27842;52.272;8.052;2022-09-09T02:59:59;17.40;94.40
40960;DHT22;27842;52.272;8.052;2022-09-09T03:02:25;17.30;94.40
40960;DHT22;27842;52.272;8.052;2022-09-09T03:04:51;17.40;94.40
40960;DHT22;27842;52.272;8.052;2022-09-09T03:07:19;17.40;94.40
40960;DHT22;27842;52.272;8.052;2022-09-09T03:09:45;17.40;94.40
40960;DHT22;27842;52.272;8.052;2022-09-09T03:12:11;17.40;94.30
40960;DHT22;27842;52.272;8.052;2022-09-09T03:14:38;17.40;94.40
40960;DHT22;27842;52.272;8.052;2022-09-09T03:17:05;17.40;94.40
40960;DHT22;27842;52.272;8.052;2022-09-09T03:19:31;17.30;94.40
40960;DHT22;27842;52.272;8.052;2022-09-09T03:22:00;17.30;94.40
40960;DHT22;27842;52.272;8.052;2022-09-09T03:24:25;17.30;94.50
40960;DHT22;27842;52.272;8.052;2022-09-09T03:26:51;17.30;94.80
40960;DHT22;27842;52.272;8.052;2022-09-09T03:29:17;17.30;94.50
40960;DHT22;27842;52.272;8.052;2022-09-09T03:31:44;17.30;94.50
40960;DHT22;27842;52.272;8.052;2022-09-09T03:34:09;17.20;94.50
40960;DHT22;27842;52.272;8.052;2022-09-09T03:36:35;17.20;94.50
40960;DHT22;27842;52.272;8.052;2022-09-09T03:39:04;17.20;94.60
40960;DHT22;27842;52.272;8.052;2022-09-09T03:41:30;17.20;94.60
40960;DHT22;27842;52.272;8.052;2022-09-09T03:43:56;17.20;94.60
40960;DHT22;27842;52.272;8.052;2022-09-09T03:46:23;17.20;94.60
40960;DHT22;27842;52.272;8.052;2022-09-09T03:48:50;17.20;94.70
40960;DHT22;27842;52.272;8.052;2022-09-09T03:51:17;17.20;94.70
40960;DHT22;27842;52.272;8.052;2022-09-09T03:53:43;17.10;94.70
40960;DHT22;27842;52.272;8.052;2022-09-09T03:56:09;17.20;94.70
40960;DHT22;27842;52.272;8.052;2022-09-09T03:58:36;17.10;94.70
40960;DHT22;27842;52.272;8.052;2022-09-09T04:01:04;17.10;94.80
40960;DHT22;27842;52.272;8.052;2022-09-09T04:03:31;17.10;94.80
40960;DHT22;27842;52.272;8.052;2022-09-09T04:05:59;17.10;94.70
40960;DHT22;27842;52.272;8.052;2022-09-09T04:08:25;17.10;94.80
40960;DHT22;27842;52.272;8.052;2022-09-09T04:10:52;17.10;94.70
40960;DHT22;27842;52.272;8.052;2022-09-09T04:13:18;17.20;94.80
40960;DHT22;27842;52.272;8.052;2022-09-09T04:15:54;17.20;94.70
40960;DHT22;27842;52.272;8.052;2022-09-09T04:18:20;17.20;94.70
40960;DHT22;27842;52.272;8.052;2022-09-09T04:20:50;17.20;94.80
40960;DHT22;27842;52.272;8.052;2022-09-09T04:23:16;17.20;94.80
40960;DHT22;27842;52.272;8.052;2022-09-09T04:25:45;17.20;94.80
40960;DHT22;27842;52.272;8.052;2022-09-09T04:28:12;17.20;94.80
40960;DHT22;27842;52.272;8.052;2022-09-09T04:30:38;17.20;94.80
40960;DHT22;27842;52.272;8.052;2022-09-09T04:33:05;17.10;94.80
40960;DHT22;27842;52.272;8.052;2022-09-09T04:35:31;17.20;94.90
40960;DHT22;27842;52.272;8.052;2022-09-09T04:37:57;17.10;94.80
40960;DHT22;27842;52.272;8.052;2022-09-09T04:40:23;17.20;94.90
40960;DHT22;27842;52.272;8.052;2022-09-09T04:42:48;17.20;94.90
40960;DHT22;27842;52.272;8.052;2022-09-09T04:45:15;17.20;94.80
40960;DHT22;27842;52.272;8.052;2022-09-09T04:47:40;17.20;94.90
40960;DHT22;27842;52.272;8.052;2022-09-09T04:50:07;17.20;94.80
40960;DHT22;27842;52.272;8.052;2022-09-09T04:52:34;17.20;94.90
40960;DHT22;27842;52.272;8.052;2022-09-09T04:55:01;17.20;94.90
40960;DHT22;27842;52.272;8.052;2022-09-09T04:57:26;17.20;95.20
40960;DHT22;27842;52.272;8.052;2022-09-09T04:59:52;17.20;94.90
40960;DHT22;27842;52.272;8.052;2022-09-09T05:02:21;17.20;94.90
40960;DHT22;27842;52.272;8.052;2022-09-09T05:04:46;17.20;94.90
40960;DHT22;27842;52.272;8.052;2022-09-09T05:07:12;17.20;94.90
40960;DHT22;27842;52.272;8.052;2022-09-09T05:09:38;17.20;94.80
40960;DHT22;27842;52.272;8.052;2022-09-09T05:12:04;17.30;94.90
40960;DHT22;27842;52.272;8.052;2022-09-09T05:14:29;17.30;94.90
40960;DHT22;27842;52.272;8.052;2022-09-09T05:16:55;17.30;94.80
40960;DHT22;27842;52.272;8.052;2022-09-09T05:19:21;17.30;94.70
40960;DHT22;27842;52.272;8.052;2022-09-09T05:21:47;17.30;94.70
40960;DHT22;27842;52.272;8.052;2022-09-09T05:24:12;17.30;94.80
40960;DHT22;27842;52.272;8.052;2022-09-09T05:26:38;17.40;94.70
40960;DHT22;27842;52.272;8.052;2022-09-09T05:29:03;17.40;94.70
40960;DHT22;27842;52.272;8.052;2022-09-09T05:31:30;17.40;94.70
40960;DHT22;27842;52.272;8.052;2022-09-09T05:33:56;17.40;94.60
40960;DHT22;27842;52.272;8.052;2022-09-09T05:36:22;17.40;94.60
40960;DHT22;27842;52.272;8.052;2022-09-09T05:38:48;17.40;94.60
40960;DHT22;27842;52.272;8.052;2022-09-09T05:41:15;17.50;94.70
40960;DHT22;27842;52.272;8.052;2022-09-09T05:43:41;17.50;94.60
40960;DHT22;27842;52.272;8.052;2022-09-09T05:46:20;17.40;94.50
40960;DHT22;27842;52.272;8.052;2022-09-09T05:48:47;17.40;94.60
40960;DHT22;27842;52.272;8.052;2022-09-09T05:51:17;17.50;94.60
40960;DHT22;27842;52.272;8.052;2022-09-09T05:53:44;17.50;94.60
40960;DHT22;27842;52.272;8.052;2022-09-09T05:56:18;17.50;94.60
40960;DHT22;27842;52.272;8.052;2022-09-09T05:58:45;17.50;94.50
40960;DHT22;27842;52.272;8.052;2022-09-09T06:01:23;17.50;94.50
40960;DHT22;27842;52.272;8.052;2022-09-09T06:03:50;17.50;94.60
40960;DHT22;27842;52.272;8.052;2022-09-09T06:06:19;17.50;94.60
40960;DHT22;27842;52.272;8.052;2022-09-09T06:08:54;17.50;94.60
40960;DHT22;27842;52.272;8.052;2022-09-09T06:11:22;17.60;94.60
40960;DHT22;27842;52.272;8.052;2022-09-09T06:13:49;17.60;94.60
40960;DHT22;27842;52.272;8.052;2022-09-09T06:16:20;17.50;94.60
40960;DHT22;27842;52.272;8.052;2022-09-09T06:18:48;17.60;94.50
40960;DHT22;27842;52.272;8.052;2022-09-09T06:21:19;17.60;94.50
40960;DHT22;27842;52.272;8.052;2022-09-09T06:23:45;17.60;94.50
40960;DHT22;27842;52.272;8.052;2022-09-09T06:28:38;17.70;94.50
40960;DHT22;27842;52.272;8.052;2022-09-09T06:31:06;17.60;94.50
40960;DHT22;27842;52.272;8.052;2022-09-09T06:33:37;17.60;94.50
40960;DHT22;27842;52.272;8.052;2022-09-09T06:36:07;17.70;94.50
40960;DHT22;27842;52.272;8.052;2022-09-09T06:38:35;17.70;94.60
40960;DHT22;27842;52.272;8.052;2022-09-09T06:41:01;17.70;94.50
40960;DHT22;27842;52.272;8.052;2022-09-09T06:43:27;17.70;94.60
40960;DHT22;27842;52.272;8.052;2022-09-09T06:45:58;17.70;94.60
40960;DHT22;27842;52.272;8.052;2022-09-09T06:48:25;17.70;94.60
40960;DHT22;27842;52.272;8.052;2022-09-09T06:51:06;17.70;94.60
40960;DHT22;27842;52.272;8.052;2022-09-09T06:53:34;17.60;94.70
40960;DHT22;27842;52.272;8.052;2022-09-09T06:56:52;17.60;94.60
40960;DHT22;27842;52.272;8.052;2022-09-09T06:59:11;17.70;94.60
40960;DHT22;27842;52.272;8.052;2022-09-09T07:01:42;17.60;94.50
40960;DHT22;27842;52.272;8.052;2022-09-09T07:04:12;17.60;94.60
40960;DHT22;27842;52.272;8.052;2022-09-09T07:06:41;17.70;94.60
40960;DHT22;27842;52.272;8.052;2022-09-09T07:09:14;17.60;94.60
40960;DHT22;27842;52.272;8.052;2022-09-09T07:11:42;17.70;94.60
40960;DHT22;27842;52.272;8.052;2022-09-09T07:14:09;17.60;94.60
40960;DHT22;27842;52.272;8.052;2022-09-09T07:16:37;17.70;94.60
40960;DHT22;27842;52.272;8.052;2022-09-09T07:19:04;17.70;94.70
40960;DHT22;27842;52.272;8.052;2022-09-09T07:21:31;17.70;94.60
40960;DHT22;27842;52.272;8.052;2022-09-09T07:23:58;17.70;94.70
40960;DHT22;27842;52.272;8.052;2022-09-09T07:26:26;17.70;94.60
40960;DHT22;27842;52.272;8.052;2022-09-09T07:28:52;17.70;94.60
40960;DHT22;27842;52.272;8.052;2022-09-09T07:31:27;17.70;94.60
40960;DHT22;27842;52.272;8.052;2022-09-09T07:33:53;17.80;94.70
40960;DHT22;27842;52.272;8.052;2022-09-09T07:36:22;17.80;94.70
40960;DHT22;27842;52.272;8.052;2022-09-09T07:38:48;17.80;94.60
40960;DHT22;27842;52.272;8.052;2022-09-09T07:41:27;17.80;94.80
40960;DHT22;27842;52.272;8.052;2022-09-09T07:43:54;17.80;94.60
40960;DHT22;27842;52.272;8.052;2022-09-09T07:46:22;17.90;94.60
40960;DHT22;27842;52.272;8.052;2022-09-09T07:48:50;17.90;94.60
40960;DHT22;27842;52.272;8.052;2022-09-09T07:51:30;17.90;94.50
40960;DHT22;27842;52.272;8.052;2022-09-09T07:54:02;17.90;94.60
40960;DHT22;27842;52.272;8.052;2022-09-09T07:56:29;18.00;94.60
40960;DHT22;27842;52.272;8.052;2022-09-09T07:58:56;18.00;94.40
40960;DHT22;27842;52.272;8.052;2022-09-09T08:01:24;18.10;94.40
40960;DHT22;27842;52.272;8.052;2022-09-09T08:04:11;18.10;94.60
40960;DHT22;27842;52.272;8.052;2022-09-09T08:06:42;18.10;94.40
40960;DHT22;27842;52.272;8.052;2022-09-09T08:09:08;18.10;94.40
40960;DHT22;27842;52.272;8.052;2022-09-09T08:11:35;18.20;94.30
40960;DHT22;27842;52.272;8.052;2022-09-09T08:14:02;18.20;94.30
40960;DHT22;27842;52.272;8.052;2022-09-09T08:16:30;18.30;94.30
40960;DHT22;27842;52.272;8.052;2022-09-09T08:18:56;18.20;94.20
40960;DHT22;27842;52.272;8.052;2022-09-09T08:21:25;18.30;94.30
40960;DHT22;27842;52.272;8.052;2022-09-09T08:23:52;18.30;94.20
40960;DHT22;27842;52.272;8.052;2022-09-09T08:26:24;18.30;94.20
40960;DHT22;27842;52.272;8.052;2022-09-09T08:28:51;18.40;94.10
40960;DHT22;27842;52.272;8.052;2022-09-09T08:33:48;18.50;94.10
40960;DHT22;27842;52.272;8.052;2022-09-09T08:36:19;18.50;93.90
40960;DHT22;27842;52.272;8.052;2022-09-09T08:38:50;18.60;93.90
40960;DHT22;27842;52.272;8.052;2022-09-09T08:43:51;18.60;93.80
40960;DHT22;27842;52.272;8.052;2022-09-09T08:46:50;18.70;93.90
40960;DHT22;27842;52.272;8.052;2022-09-09T08:53:10;18.80;94.10
40960;DHT22;27842;52.272;8.052;2022-09-09T09:03:54;19.20;93.40
40960;DHT22;27842;52.272;8.052;2022-09-09T09:11:39;19.50;92.70
40960;DHT22;27842;52.272;8.052;2022-09-09T09:19:15;19.70;92.60
40960;DHT22;27842;52.272;8.052;2022-09-09T09:21:43;19.80;92.20
40960;DHT22;27842;52.272;8.052;2022-09-09T09:24:20;19.80;92.10
40960;DHT22;27842;52.272;8.052;2022-09-09T09:26:49;19.80;92.00
40960;DHT22;27842;52.272;8.052;2022-09-09T09:29:17;19.80;92.00
40960;DHT22;27842;52.272;8.052;2022-09-09T09:31:56;19.80;92.10
40960;DHT22;27842;52.272;8.052;2022-09-09T09:34:24;19.80;91.90
40960;DHT22;27842;52.272;8.052;2022-09-09T09:36:56;19.80;92.00
40960;DHT22;27842;52.272;8.052;2022-09-09T09:39:27;19.80;92.00
40960;DHT22;27842;52.272;8.052;2022-09-09T09:41:54;19.80;92.00
40960;DHT22;27842;52.272;8.052;2022-09-09T09:44:28;19.70;92.00
40960;DHT22;27842;52.272;8.052;2022-09-09T09:49:31;19.80;92.10
40960;DHT22;27842;52.272;8.052;2022-09-09T09:52:01;19.80;92.10
40960;DHT22;27842;52.272;8.052;2022-09-09T09:54:33;19.80;92.00
40960;DHT22;27842;52.272;8.052;2022-09-09T09:57:13;19.90;92.10
40960;DHT22;27842;52.272;8.052;2022-09-09T09:59:39;20.00;92.00
40960;DHT22;27842;52.272;8.052;2022-09-09T10:04:40;20.20;91.60
40960;DHT22;27842;52.272;8.052;2022-09-09T10:07:20;20.20;91.50
40960;DHT22;27842;52.272;8.052;2022-09-09T10:09:53;20.30;91.20
40960;DHT22;27842;52.272;8.052;2022-09-09T10:15:32;20.20;91.10
40960;DHT22;27842;52.272;8.052;2022-09-09T10:23:29;20.30;90.80
40960;DHT22;27842;52.272;8.052;2022-09-09T10:26:31;20.30;90.80
40960;DHT22;27842;52.272;8.052;2022-09-09T10:29:32;20.30;90.50
40960;DHT22;27842;52.272;8.052;2022-09-09T10:34:56;20.40;90.40
40960;DHT22;27842;52.272;8.052;2022-09-09T10:40:27;20.40;90.20
40960;DHT22;27842;52.272;8.052;2022-09-09T10:45:58;20.50;90.20
40960;DHT22;27842;52.272;8.052;2022-09-09T10:51:08;20.50;90.10
40960;DHT22;27842;52.272;8.052;2022-09-09T10:56:19;20.50;89.50
40960;DHT22;27842;52.272;8.052;2022-09-09T10:59:00;20.50;89.60
40960;DHT22;27842;52.272;8.052;2022-09-09T11:01:39;20.50;89.30
40960;DHT22;27842;52.272;8.052;2022-09-09T11:04:24;20.50;89.70
40960;DHT22;27842;52.272;8.052;2022-09-09T11:06:54;20.50;88.60
40960;DHT22;27842;52.272;8.052;2022-09-09T11:09:26;20.50;90.00
40960;DHT22;27842;52.272;8.052;2022-09-09T11:11:54;20.50;89.30
40960;DHT22;27842;52.272;8.052;2022-09-09T11:14:43;20.50;89.70
40960;DHT22;27842;52.272;8.052;2022-09-09T11:17:16;20.40;90.00
40960;DHT22;27842;52.272;8.052;2022-09-09T11:19:44;20.40;90.20
40960;DHT22;27842;52.272;8.052;2022-09-09T11:22:31;20.40;90.50
40960;DHT22;27842;52.272;8.052;2022-09-09T11:33:49;20.40;90.70
40960;DHT22;27842;52.272;8.052;2022-09-09T11:41:37;20.50;90.50
40960;DHT22;27842;52.272;8.052;2022-09-09T11:44:18;20.60;90.20
40960;DHT22;27842;52.272;8.052;2022-09-09T11:46:47;20.60;89.90
40960;DHT22;27842;52.272;8.052;2022-09-09T11:49:40;20.70;89.10
40960;DHT22;27842;52.272;8.052;2022-09-09T11:54:55;20.70;88.70
40960;DHT22;27842;52.272;8.052;2022-09-09T11:59:51;20.70;88.70
40960;DHT22;27842;52.272;8.052;2022-09-09T12:02:25;20.70;87.80
40960;DHT22;27842;52.272;8.052;2022-09-09T12:05:02;20.60;88.00
40960;DHT22;27842;52.272;8.052;2022-09-09T12:07:40;20.60;88.60
40960;DHT22;27842;52.272;8.052;2022-09-09T12:12:48;20.50;89.00
40960;DHT22;27842;52.272;8.052;2022-09-09T12:15:20;20.50;89.20
40960;DHT22;27842;52.272;8.052;2022-09-09T12:17:47;20.40;89.10
40960;DHT22;27842;52.272;8.052;2022-09-09T12:28:18;20.40;89.20
40960;DHT22;27842;52.272;8.052;2022-09-09T12:31:08;20.50;88.90
40960;DHT22;27842;52.272;8.052;2022-09-09T12:33:37;20.50;88.60
40960;DHT22;27842;52.272;8.052;2022-09-09T12:36:05;20.50;88.60
40960;DHT22;27842;52.272;8.052;2022-09-09T12:38:38;20.60;88.70
40960;DHT22;27842;52.272;8.052;2022-09-09T12:41:04;20.80;88.60
40960;DHT22;27842;52.272;8.052;2022-09-09T12:43:30;21.00;88.40
40960;DHT22;27842;52.272;8.052;2022-09-09T12:46:20;21.20;87.80
40960;DHT22;27842;52.272;8.052;2022-09-09T12:48:47;21.30;83.70
40960;DHT22;27842;52.272;8.052;2022-09-09T12:51:45;21.40;86.40
40960;DHT22;27842;52.272;8.052;2022-09-09T12:54:14;21.40;81.10
40960;DHT22;27842;52.272;8.052;2022-09-09T12:56:46;21.40;85.70
40960;DHT22;27842;52.272;8.052;2022-09-09T12:59:25;21.40;85.90
40960;DHT22;27842;52.272;8.052;2022-09-09T13:01:57;21.40;85.20
40960;DHT22;27842;52.272;8.052;2022-09-09T13:04:24;21.50;85.10
40960;DHT22;27842;52.272;8.052;2022-09-09T13:06:49;21.60;84.80
40960;DHT22;27842;52.272;8.052;2022-09-09T13:09:17;21.80;85.00
40960;DHT22;27842;52.272;8.052;2022-09-09T13:11:54;22.00;84.20
40960;DHT22;27842;52.272;8.052;2022-09-09T13:14:43;22.10;84.50
40960;DHT22;27842;52.272;8.052;2022-09-09T13:17:19;22.40;81.20
40960;DHT22;27842;52.272;8.052;2022-09-09T13:19:46;22.60;82.30
40960;DHT22;27842;52.272;8.052;2022-09-09T13:22:36;22.70;82.00
40960;DHT22;27842;52.272;8.052;2022-09-09T13:25:05;22.90;80.90
40960;DHT22;27842;52.272;8.052;2022-09-09T13:29:56;22.90;80.40
40960;DHT22;27842;52.272;8.052;2022-09-09T13:32:24;22.90;80.30
40960;DHT22;27842;52.272;8.052;2022-09-09T13:34:55;22.90;79.80
40960;DHT22;27842;52.272;8.052;2022-09-09T13:37:37;22.80;79.90
40960;DHT22;27842;52.272;8.052;2022-09-09T13:40:05;22.70;74.70
40960;DHT22;27842;52.272;8.052;2022-09-09T13:42:39;22.70;79.80
40960;DHT22;27842;52.272;8.052;2022-09-09T13:45:19;22.70;77.30
40960;DHT22;27842;52.272;8.052;2022-09-09T13:47:46;22.60;77.00
40960;DHT22;27842;52.272;8.052;2022-09-09T13:50:20;22.60;78.90
40960;DHT22;27842;52.272;8.052;2022-09-09T13:52:50;22.60;77.00
40960;DHT22;27842;52.272;8.052;2022-09-09T13:55:20;22.60;79.00
40960;DHT22;27842;52.272;8.052;2022-09-09T13:58:03;22.60;78.90
40960;DHT22;27842;52.272;8.052;2022-09-09T14:00:32;22.70;77.70
40960;DHT22;27842;52.272;8.052;2022-09-09T14:02:59;22.70;78.30
40960;DHT22;27842;52.272;8.052;2022-09-09T14:05:32;22.80;77.90
40960;DHT22;27842;52.272;8.052;2022-09-09T14:07:59;23.00;77.30
40960;DHT22;27842;52.272;8.052;2022-09-09T14:10:26;23.20;77.20
40960;DHT22;27842;52.272;8.052;2022-09-09T14:12:51;23.20;76.10
40960;DHT22;27842;52.272;8.052;2022-09-09T14:15:18;23.20;76.30
40960;DHT22;27842;52.272;8.052;2022-09-09T14:17:44;23.20;75.80
40960;DHT22;27842;52.272;8.052;2022-09-09T14:20:10;23.10;75.40
40960;DHT22;27842;52.272;8.052;2022-09-09T14:22:37;23.00;74.70
40960;DHT22;27842;52.272;8.052;2022-09-09T14:25:04;22.90;75.60
40960;DHT22;27842;52.272;8.052;2022-09-09T14:27:31;22.80;75.70
40960;DHT22;27842;52.272;8.052;2022-09-09T14:29:58;22.70;74.90
40960;DHT22;27842;52.272;8.052;2022-09-09T14:32:23;22.60;75.30
40960;DHT22;27842;52.272;8.052;2022-09-09T14:34:49;22.50;75.10
40960;DHT22;27842;52.272;8.052;2022-09-09T14:37:15;22.40;75.60
40960;DHT22;27842;52.272;8.052;2022-09-09T14:39:42;22.30;76.20
40960;DHT22;27842;52.272;8.052;2022-09-09T14:42:10;22.00;77.30
40960;DHT22;27842;52.272;8.052;2022-09-09T14:44:36;21.80;78.50
40960;DHT22;27842;52.272;8.052;2022-09-09T14:47:06;21.60;80.10
40960;DHT22;27842;52.272;8.052;2022-09-09T14:49:34;21.40;81.20
40960;DHT22;27842;52.272;8.052;2022-09-09T14:51:59;21.10;82.50
40960;DHT22;27842;52.272;8.052;2022-09-09T14:54:25;20.80;83.40
40960;DHT22;27842;52.272;8.052;2022-09-09T14:56:51;20.70;84.40
40960;DHT22;27842;52.272;8.052;2022-09-09T14:59:16;20.50;85.20
40960;DHT22;27842;52.272;8.052;2022-09-09T15:01:42;20.40;85.80
40960;DHT22;27842;52.272;8.052;2022-09-09T15:04:10;20.40;86.40
40960;DHT22;27842;52.272;8.052;2022-09-09T15:06:37;20.30;87.00
40960;DHT22;27842;52.272;8.052;2022-09-09T15:09:04;20.20;87.50
40960;DHT22;27842;52.272;8.052;2022-09-09T15:11:33;20.10;87.90
40960;DHT22;27842;52.272;8.052;2022-09-09T15:14:03;20.10;88.40
40960;DHT22;27842;52.272;8.052;2022-09-09T15:16:29;20.10;89.00
40960;DHT22;27842;52.272;8.052;2022-09-09T15:18:58;20.00;89.20
40960;DHT22;27842;52.272;8.052;2022-09-09T15:21:26;20.10;89.50
40960;DHT22;27842;52.272;8.052;2022-09-09T15:23:52;20.00;89.50
40960;DHT22;27842;52.272;8.052;2022-09-09T15:26:18;20.00;89.70
40960;DHT22;27842;52.272;8.052;2022-09-09T15:28:45;20.00;90.00
40960;DHT22;27842;52.272;8.052;2022-09-09T15:31:31;20.00;90.10
40960;DHT22;27842;52.272;8.052;2022-09-09T15:33:59;19.90;90.40
40960;DHT22;27842;52.272;8.052;2022-09-09T15:36:29;19.90;90.70
40960;DHT22;27842;52.272;8.052;2022-09-09T15:38:55;19.90;90.80
40960;DHT22;27842;52.272;8.052;2022-09-09T15:41:22;19.90;90.80
40960;DHT22;27842;52.272;8.052;2022-09-09T15:43:54;19.80;91.30
40960;DHT22;27842;52.272;8.052;2022-09-09T15:46:33;19.70;91.30
40960;DHT22;27842;52.272;8.052;2022-09-09T15:49:31;19.60;91.60
40960;DHT22;27842;52.272;8.052;2022-09-09T15:52:00;19.60;91.50
40960;DHT22;27842;52.272;8.052;2022-09-09T15:54:31;19.60;91.50
40960;DHT22;27842;52.272;8.052;2022-09-09T15:56:59;19.50;91.60
40960;DHT22;27842;52.272;8.052;2022-09-09T15:59:28;19.50;91.70
40960;DHT22;27842;52.272;8.052;2022-09-09T16:01:55;19.40;91.70
40960;DHT22;27842;52.272;8.052;2022-09-09T16:04:22;19.40;91.80
40960;DHT22;27842;52.272;8.052;2022-09-09T16:06:57;19.40;91.90
40960;DHT22;27842;52.272;8.052;2022-09-09T16:09:24;19.40;91.90
40960;DHT22;27842;52.272;8.052;2022-09-09T16:11:50;19.30;91.90
40960;DHT22;27842;52.272;8.052;2022-09-09T16:14:18;19.30;92.00
40960;DHT22;27842;52.272;8.052;2022-09-09T16:16:44;19.30;92.10
40960;DHT22;27842;52.272;8.052;2022-09-09T16:19:11;19.30;92.10
40960;DHT22;27842;52.272;8.052;2022-09-09T16:21:48;19.30;92.20
40960;DHT22;27842;52.272;8.052;2022-09-09T16:24:17;19.30;92.30
40960;DHT22;27842;52.272;8.052;2022-09-09T16:26:48;19.30;92.20
40960;DHT22;27842;52.272;8.052;2022-09-09T16:29:15;19.30;92.30
40960;DHT22;27842;52.272;8.052;2022-09-09T16:31:41;19.30;92.40
40960;DHT22;27842;52.272;8.052;2022-09-09T16:34:07;19.30;92.40
40960;DHT22;27842;52.272;8.052;2022-09-09T16:36:35;19.30;92.40
40960;DHT22;27842;52.272;8.052;2022-09-09T16:39:04;19.30;92.40
40960;DHT22;27842;52.272;8.052;2022-09-09T16:41:33;19.30;92.50
40960;DHT22;27842;52.272;8.052;2022-09-09T16:44:02;19.20;92.60
40960;DHT22;27842;52.272;8.052;2022-09-09T16:46:29;19.20;92.50
40960;DHT22;27842;52.272;8.052;2022-09-09T16:48:56;19.20;92.80
40960;DHT22;27842;52.272;8.052;2022-09-09T16:51:26;19.20;92.70
40960;DHT22;27842;52.272;8.052;2022-09-09T16:53:52;19.20;92.70
40960;DHT22;27842;52.272;8.052;2022-09-09T16:56:23;19.10;92.60
40960;DHT22;27842;52.272;8.052;2022-09-09T16:58:54;19.10;92.70
40960;DHT22;27842;52.272;8.052;2022-09-09T17:01:24;19.10;92.70
40960;DHT22;27842;52.272;8.052;2022-09-09T17:03:57;19.10;92.70
40960;DHT22;27842;52.272;8.052;2022-09-09T17:06:23;19.10;92.80
40960;DHT22;27842;52.272;8.052;2022-09-09T17:09:03;19.10;92.80
40960;DHT22;27842;52.272;8.052;2022-09-09T17:11:29;19.10;92.90
40960;DHT22;27842;52.272;8.052;2022-09-09T17:13:56;19.00;92.90
40960;DHT22;27842;52.272;8.052;2022-09-09T17:16:25;19.00;92.90
40960;DHT22;27842;52.272;8.052;2022-09-09T17:18:54;19.00;93.00
40960;DHT22;27842;52.272;8.052;2022-09-09T17:21:22;19.00;93.00
40960;DHT22;27842;52.272;8.052;2022-09-09T17:23:48;18.90;93.00
40960;DHT22;27842;52.272;8.052;2022-09-09T17:26:16;18.90;93.10
40960;DHT22;27842;52.272;8.052;2022-09-09T17:28:43;18.90;93.10
40960;DHT22;27842;52.272;8.052;2022-09-09T17:31:10;18.90;93.10
40960;DHT22;27842;52.272;8.052;2022-09-09T17:33:40;18.90;93.20
40960;DHT22;27842;52.272;8.052;2022-09-09T17:36:30;18.80;93.20
40960;DHT22;27842;52.272;8.052;2022-09-09T17:38:57;18.80;93.80
40960;DHT22;27842;52.272;8.052;2022-09-09T17:41:27;18.80;93.40
40960;DHT22;27842;52.272;8.052;2022-09-09T17:43:56;18.80;93.50
40960;DHT22;27842;52.272;8.052;2022-09-09T17:46:26;18.80;93.60
40960;DHT22;27842;52.272;8.052;2022-09-09T17:48:59;18.70;93.50
40960;DHT22;27842;52.272;8.052;2022-09-09T17:51:27;18.70;93.50
40960;DHT22;27842;52.272;8.052;2022-09-09T17:53:57;18.70;93.60
40960;DHT22;27842;52.272;8.052;2022-09-09T17:56:25;18.70;93.70
40960;DHT22;27842;52.272;8.052;2022-09-09T17:58:52;18.70;93.70
40960;DHT22;27842;52.272;8.052;2022-09-09T18:01:20;18.60;93.70
40960;DHT22;27842;52.272;8.052;2022-09-09T18:03:47;18.60;94.10
40960;DHT22;27842;52.272;8.052;2022-09-09T18:06:17;18.60;93.80